createdAt,value
2019-03-11T00:00:43.707Z,1.03
2019-03-11T00:03:12.960Z,0.90
2019-03-11T00:05:42.199Z,1.13
2019-03-11T00:08:12.368Z,0.90
2019-03-11T00:10:41.625Z,0.80
2019-03-11T00:13:10.877Z,0.90
2019-03-11T00:15:40.111Z,1.10
2019-03-11T00:18:09.432Z,0.90
2019-03-11T00:20:38.686Z,0.90
2019-03-11T00:23:07.867Z,0.70
2019-03-11T00:25:37.119Z,0.90
2019-03-11T00:28:06.455Z,0.90
2019-03-11T00:30:35.774Z,0.80
2019-03-11T00:33:05.011Z,0.90
2019-03-11T00:35:34.264Z,0.70
2019-03-11T00:38:03.514Z,0.80
2019-03-11T00:40:32.908Z,0.87
2019-03-11T00:43:02.155Z,0.80
2019-03-11T00:45:31.424Z,0.80
2019-03-11T00:48:02.369Z,0.80
2019-03-11T00:50:31.532Z,0.70
2019-03-11T00:53:00.796Z,0.80
2019-03-11T00:55:30.045Z,0.80
2019-03-11T00:57:59.315Z,0.57
2019-03-11T01:00:31.767Z,0.70
2019-03-11T01:03:00.999Z,0.60
2019-03-11T01:05:30.252Z,0.60
2019-03-11T01:07:59.506Z,0.60
2019-03-11T01:10:28.760Z,0.70
2019-03-11T01:12:58.015Z,0.60
2019-03-11T01:15:27.267Z,0.80
2019-03-11T01:17:56.520Z,0.57
2019-03-11T01:20:25.772Z,0.80
2019-03-11T01:22:55.024Z,0.80
2019-03-11T01:25:24.343Z,0.73
2019-03-11T01:27:53.604Z,0.60
2019-03-11T01:30:22.844Z,0.70
2019-03-11T01:32:52.106Z,0.63
2019-03-11T01:35:21.357Z,0.67
2019-03-11T01:37:50.612Z,0.53
2019-03-11T01:40:19.867Z,0.83
2019-03-11T01:42:51.526Z,0.67
2019-03-11T01:45:20.356Z,0.70
2019-03-11T01:47:49.743Z,0.60
2019-03-11T01:50:19.068Z,0.67
2019-03-11T01:52:48.311Z,0.60
2019-03-11T01:55:17.565Z,0.57
2019-03-11T01:57:46.803Z,0.60
2019-03-11T02:00:18.365Z,0.70
2019-03-11T02:02:47.600Z,0.77
2019-03-11T02:05:16.851Z,0.53
2019-03-11T02:07:46.319Z,0.60
2019-03-11T02:10:17.974Z,0.53
2019-03-11T02:12:47.204Z,0.60
2019-03-11T02:15:17.798Z,0.53
2019-03-11T02:17:47.035Z,0.40
2019-03-11T02:20:19.208Z,0.40
2019-03-11T02:22:48.470Z,0.60
2019-03-11T02:25:17.723Z,0.60
2019-03-11T02:27:46.959Z,0.67
2019-03-11T02:30:17.654Z,0.43
2019-03-11T02:32:46.986Z,0.70
2019-03-11T02:35:29.799Z,0.50
2019-03-11T02:37:59.169Z,0.50
2019-03-11T02:40:28.462Z,0.63
2019-03-11T02:42:57.656Z,0.43
2019-03-11T02:45:26.907Z,0.40
2019-03-11T02:47:56.164Z,0.33
2019-03-11T02:50:25.406Z,0.50
2019-03-11T02:52:54.664Z,0.70
2019-03-11T02:55:23.921Z,0.50
2019-03-11T02:57:53.173Z,0.50
2019-03-11T03:00:22.796Z,0.43
2019-03-11T03:03:11.716Z,0.40
2019-03-11T03:05:42.613Z,0.30
2019-03-11T03:08:11.865Z,0.50
2019-03-11T03:10:41.134Z,0.30
2019-03-11T03:13:10.390Z,0.50
2019-03-11T03:15:39.663Z,0.37
2019-03-11T03:18:08.919Z,0.50
2019-03-11T03:20:38.157Z,0.30
2019-03-11T03:23:07.414Z,0.50
2019-03-11T03:25:36.653Z,0.50
2019-03-11T03:28:06.321Z,0.50
2019-03-11T03:30:35.705Z,0.33
2019-03-11T03:33:04.977Z,0.57
2019-03-11T03:35:34.224Z,0.40
2019-03-11T03:38:03.528Z,0.60
2019-03-11T03:40:32.791Z,0.30
2019-03-11T03:43:02.322Z,0.30
2019-03-11T03:45:34.047Z,0.40
2019-03-11T03:48:03.297Z,0.30
2019-03-11T03:50:38.243Z,0.50
2019-03-11T03:53:08.134Z,0.30
2019-03-11T03:55:37.371Z,0.47
2019-03-11T03:58:06.696Z,0.33
2019-03-11T04:00:35.946Z,0.40
2019-03-11T04:03:05.199Z,0.30
2019-03-11T04:05:34.457Z,0.50
2019-03-11T04:08:03.708Z,0.40
2019-03-11T04:10:33.297Z,0.30
2019-03-11T04:13:02.763Z,0.37
2019-03-11T04:15:31.991Z,0.40
2019-03-11T04:18:01.247Z,0.30
2019-03-11T04:20:30.486Z,0.40
2019-03-11T04:22:59.739Z,0.40
2019-03-11T04:25:30.377Z,0.67
2019-03-11T04:27:59.649Z,0.40
2019-03-11T04:30:29.177Z,0.40
2019-03-11T04:32:58.434Z,0.30
2019-03-11T04:35:27.667Z,0.40
2019-03-11T04:37:56.912Z,0.50
2019-03-11T04:40:26.157Z,0.70
2019-03-11T04:42:55.408Z,0.40
2019-03-11T04:45:24.668Z,0.43
2019-03-11T04:47:53.907Z,0.57
2019-03-11T04:50:23.160Z,0.50
2019-03-11T04:52:52.411Z,0.47
2019-03-11T04:55:21.683Z,0.43
2019-03-11T04:57:54.192Z,0.63
2019-03-11T05:00:30.752Z,0.40
2019-03-11T05:03:00.001Z,0.43
2019-03-11T05:05:29.255Z,0.50
2019-03-11T05:07:58.494Z,0.40
2019-03-11T05:10:27.743Z,0.50
2019-03-11T05:12:56.984Z,0.33
2019-03-11T05:15:26.241Z,0.60
2019-03-11T05:17:55.483Z,0.60
2019-03-11T05:20:24.740Z,0.50
2019-03-11T05:22:55.046Z,0.50
2019-03-11T05:25:24.367Z,0.47
2019-03-11T05:27:53.607Z,0.70
2019-03-11T05:30:22.847Z,0.30
2019-03-11T05:32:52.026Z,0.70
2019-03-11T05:35:21.268Z,0.43
2019-03-11T05:37:50.529Z,0.57
2019-03-11T05:40:21.216Z,0.50
2019-03-11T05:42:50.468Z,0.53
2019-03-11T05:45:20.444Z,0.57
2019-03-11T05:47:49.626Z,0.47
2019-03-11T05:50:19.478Z,0.53
2019-03-11T05:52:48.732Z,0.50
2019-03-11T05:55:17.971Z,0.50
2019-03-11T05:57:47.230Z,0.60
2019-03-11T06:00:31.420Z,0.60
2019-03-11T06:03:00.676Z,0.50
2019-03-11T06:05:29.919Z,0.60
2019-03-11T06:08:00.144Z,0.60
2019-03-11T06:10:29.397Z,0.40
2019-03-11T06:12:58.640Z,0.70
2019-03-11T06:15:27.891Z,0.57
2019-03-11T06:17:57.061Z,0.50
2019-03-11T06:20:30.916Z,0.77
2019-03-11T06:23:01.538Z,0.50
2019-03-11T06:25:30.808Z,0.60
2019-03-11T06:28:00.183Z,0.67
2019-03-11T06:30:29.424Z,0.53
2019-03-11T06:32:58.675Z,0.60
2019-03-11T06:35:29.187Z,0.60
2019-03-11T06:37:58.436Z,0.50
2019-03-11T06:40:27.745Z,0.50
2019-03-11T06:42:56.996Z,0.53
2019-03-11T06:45:26.266Z,0.50
2019-03-11T06:47:56.552Z,0.53
2019-03-11T06:50:26.779Z,0.50
2019-03-11T06:52:56.016Z,0.70
2019-03-11T06:55:25.557Z,0.40
2019-03-11T06:57:54.799Z,0.50
2019-03-11T07:00:24.048Z,0.70
2019-03-11T07:02:54.474Z,0.70
2019-03-11T07:05:23.736Z,0.90
2019-03-11T07:07:52.989Z,0.47
2019-03-11T07:10:22.240Z,0.67
2019-03-11T07:12:51.491Z,0.70
2019-03-11T07:15:20.795Z,0.47
2019-03-11T07:17:49.975Z,0.70
2019-03-11T07:20:19.600Z,0.50
2019-03-11T07:22:48.852Z,0.60
2019-03-11T07:25:18.109Z,0.50
2019-03-11T07:27:47.426Z,0.80
2019-03-11T07:30:18.987Z,0.70
2019-03-11T07:32:48.241Z,0.63
2019-03-11T07:35:17.510Z,0.40
2019-03-11T07:37:46.824Z,0.67
2019-03-11T07:40:28.344Z,0.47
2019-03-11T07:42:47.676Z,0.60
2019-03-11T07:45:17.263Z,0.40
2019-03-11T07:47:46.528Z,0.60
2019-03-11T07:50:16.595Z,0.40
2019-03-11T07:52:45.847Z,0.70
2019-03-11T07:55:15.088Z,0.60
2019-03-11T07:57:44.339Z,0.60
2019-03-11T08:00:20.398Z,0.60
2019-03-11T08:02:49.655Z,0.50
2019-03-11T08:05:18.903Z,0.60
2019-03-11T08:07:48.118Z,0.50
2019-03-11T08:10:22.888Z,0.50
2019-03-11T08:12:53.295Z,0.60
2019-03-11T08:15:23.520Z,0.60
2019-03-11T08:17:52.828Z,0.80
2019-03-11T08:20:22.083Z,0.80
2019-03-11T08:22:51.325Z,0.40
2019-03-11T08:25:20.580Z,0.53
2019-03-11T08:27:49.837Z,0.63
2019-03-11T08:30:20.636Z,0.60
2019-03-11T08:32:49.963Z,0.40
2019-03-11T08:35:19.221Z,0.77
2019-03-11T08:37:48.471Z,0.30
2019-03-11T08:40:21.205Z,0.40
2019-03-11T08:42:50.571Z,0.57
2019-03-11T08:45:20.092Z,0.60
2019-03-11T08:47:49.411Z,0.40
2019-03-11T08:50:18.593Z,0.40
2019-03-11T08:52:47.850Z,0.30
2019-03-11T08:55:17.108Z,0.50
2019-03-11T08:57:46.419Z,0.50
2019-03-11T09:00:22.421Z,0.50
2019-03-11T09:02:51.659Z,0.63
2019-03-11T09:05:20.912Z,0.50
2019-03-11T09:07:50.153Z,0.50
2019-03-11T09:10:19.782Z,0.50
2019-03-11T09:12:49.016Z,0.60
2019-03-11T09:15:20.013Z,0.50
2019-03-11T09:17:49.259Z,0.40
2019-03-11T09:20:18.883Z,0.50
2019-03-11T09:22:48.144Z,0.60
2019-03-11T09:25:28.482Z,0.40
2019-03-11T09:27:57.731Z,0.50
2019-03-11T09:30:26.973Z,0.53
2019-03-11T09:32:56.229Z,0.30
2019-03-11T09:35:25.479Z,0.50
2019-03-11T09:37:55.088Z,0.40
2019-03-11T09:40:24.333Z,0.40
2019-03-11T09:42:53.579Z,0.40
2019-03-11T09:45:24.256Z,0.53
2019-03-11T09:47:53.865Z,0.40
2019-03-11T09:50:23.124Z,0.40
2019-03-11T09:52:52.373Z,0.50
2019-03-11T09:55:23.868Z,0.50
2019-03-11T09:57:54.410Z,0.47
2019-03-11T10:00:34.678Z,0.40
2019-03-11T10:03:03.937Z,0.60
2019-03-11T10:05:34.257Z,0.40
2019-03-11T10:08:04.785Z,0.33
2019-03-11T10:10:34.028Z,0.50
2019-03-11T10:13:03.548Z,0.37
2019-03-11T10:15:32.873Z,0.50
2019-03-11T10:18:02.196Z,0.37
2019-03-11T10:20:31.440Z,0.40
2019-03-11T10:23:00.691Z,0.33
2019-03-11T10:25:29.928Z,0.43
2019-03-11T10:27:59.184Z,0.30
2019-03-11T10:30:28.611Z,0.40
2019-03-11T10:32:57.863Z,0.50
2019-03-11T10:35:31.714Z,0.40
2019-03-11T10:37:57.980Z,0.30
2019-03-11T10:40:31.848Z,0.47
2019-03-11T10:43:01.098Z,0.40
2019-03-11T10:45:32.133Z,0.30
2019-03-11T10:48:01.216Z,0.30
2019-03-11T10:50:30.482Z,0.40
2019-03-11T10:52:59.712Z,0.40
2019-03-11T10:55:28.947Z,0.40
2019-03-11T10:57:58.312Z,0.50
2019-03-11T11:00:33.637Z,0.30
2019-03-11T11:03:02.906Z,0.30
2019-03-11T11:05:32.131Z,0.30
2019-03-11T11:08:02.659Z,0.20
2019-03-11T11:10:31.898Z,0.50
2019-03-11T11:13:01.156Z,0.30
2019-03-11T11:15:32.705Z,0.30
2019-03-11T11:18:01.966Z,0.20
2019-03-11T11:20:32.283Z,0.30
2019-03-11T11:23:01.524Z,0.40
2019-03-11T11:25:31.799Z,0.40
2019-03-11T11:28:01.056Z,0.40
2019-03-11T11:30:31.331Z,0.40
2019-03-11T11:33:00.584Z,0.50
2019-03-11T11:35:29.898Z,0.40
2019-03-11T11:37:59.383Z,0.40
2019-03-11T11:40:31.552Z,0.40
2019-03-11T11:43:00.804Z,0.30
2019-03-11T11:45:31.396Z,0.20
2019-03-11T11:48:00.652Z,0.53
2019-03-11T11:50:29.905Z,0.40
2019-03-11T11:52:59.144Z,0.30
2019-03-11T11:55:28.406Z,0.30
2019-03-11T11:57:57.811Z,0.30
2019-03-11T12:00:29.482Z,0.40
2019-03-11T12:02:58.727Z,0.30
2019-03-11T12:05:27.984Z,0.30
2019-03-11T12:07:57.232Z,0.40
2019-03-11T12:10:31.504Z,0.20
2019-03-11T12:13:00.752Z,0.30
2019-03-11T12:15:29.995Z,0.40
2019-03-11T12:17:59.771Z,0.40
2019-03-11T12:20:30.153Z,0.40
2019-03-11T12:22:59.412Z,0.20
2019-03-11T12:25:28.652Z,0.37
2019-03-11T12:27:58.539Z,0.23
2019-03-11T12:30:32.064Z,0.30
2019-03-11T12:33:01.441Z,0.40
2019-03-11T12:35:30.684Z,0.30
2019-03-11T12:38:00.016Z,0.30
2019-03-11T12:40:29.303Z,0.30
2019-03-11T12:42:58.563Z,0.27
2019-03-11T12:45:27.834Z,0.30
2019-03-11T12:47:57.074Z,0.37
2019-03-11T12:50:30.395Z,0.40
2019-03-11T12:52:59.633Z,0.30
2019-03-11T12:55:28.924Z,0.30
2019-03-11T12:57:58.248Z,0.30
2019-03-11T13:00:27.497Z,0.47
2019-03-11T13:02:56.743Z,0.30
2019-03-11T13:05:25.995Z,0.23
2019-03-11T13:07:55.183Z,0.20
2019-03-11T13:10:31.663Z,0.40
2019-03-11T13:13:00.920Z,0.30
2019-03-11T13:15:30.616Z,0.30
2019-03-11T13:18:34.752Z,0.30
2019-03-11T13:21:07.270Z,0.30
2019-03-11T13:23:36.572Z,0.20
2019-03-11T13:26:05.832Z,0.27
2019-03-11T13:28:35.067Z,0.20
2019-03-11T13:31:04.248Z,0.30
2019-03-11T13:33:33.556Z,0.20
2019-03-11T13:36:03.271Z,0.20
2019-03-11T13:38:34.501Z,0.27
2019-03-11T13:41:03.730Z,0.10
2019-03-11T13:43:34.239Z,0.40
2019-03-11T13:46:03.497Z,0.17
2019-03-11T13:48:32.747Z,0.20
2019-03-11T13:51:02.004Z,0.20
2019-03-11T13:53:31.256Z,0.20
2019-03-11T13:56:00.511Z,0.47
2019-03-11T13:58:29.691Z,0.13
2019-03-11T14:00:58.928Z,0.27
2019-03-11T14:03:28.183Z,0.30
2019-03-11T14:05:57.423Z,0.10
2019-03-11T14:08:26.713Z,0.20
2019-03-11T14:10:55.957Z,0.20
2019-03-11T14:13:25.211Z,0.20
2019-03-11T14:15:56.903Z,0.20
2019-03-11T14:18:25.543Z,0.10
2019-03-11T14:20:54.783Z,0.20
2019-03-11T14:23:24.404Z,0.20
2019-03-11T14:25:53.656Z,0.20
2019-03-11T14:28:22.908Z,0.20
2019-03-11T14:30:52.436Z,0.60
2019-03-11T14:33:21.685Z,0.37
2019-03-11T14:35:52.277Z,0.60
2019-03-11T14:38:21.789Z,0.40
2019-03-11T14:40:51.042Z,0.40
2019-03-11T14:43:20.296Z,0.43
2019-03-11T14:45:49.544Z,0.47
2019-03-11T14:48:19.064Z,0.70
2019-03-11T14:50:48.324Z,0.90
2019-03-11T14:53:17.568Z,0.63
2019-03-11T14:55:46.819Z,0.90
2019-03-11T14:58:16.152Z,0.90
2019-03-11T15:00:45.417Z,0.90
2019-03-11T15:03:14.659Z,1.10
2019-03-11T15:05:43.920Z,1.27
2019-03-11T15:08:13.179Z,0.90
2019-03-11T15:10:42.423Z,1.00
2019-03-11T15:13:11.682Z,1.47
2019-03-11T15:15:40.972Z,1.40
2019-03-11T15:18:10.456Z,1.23
2019-03-11T15:20:39.709Z,1.30
2019-03-11T15:23:20.032Z,1.60
2019-03-11T15:25:39.839Z,1.63
2019-03-11T15:28:09.146Z,1.60
2019-03-11T15:30:38.396Z,1.77
2019-03-11T15:33:07.640Z,1.60
2019-03-11T15:35:36.901Z,1.73
2019-03-11T15:38:06.135Z,1.60
2019-03-11T15:40:35.393Z,2.00
2019-03-11T15:43:04.632Z,1.70
2019-03-11T15:45:38.574Z,2.10
2019-03-11T15:48:04.770Z,1.80
2019-03-11T15:50:35.860Z,2.20
2019-03-11T15:53:05.288Z,2.13
2019-03-11T15:55:34.544Z,2.00
2019-03-11T15:58:03.789Z,1.93
2019-03-11T16:00:33.044Z,2.23
2019-03-11T16:03:02.366Z,2.00
2019-03-11T16:05:31.611Z,2.27
2019-03-11T16:08:00.937Z,4.27
2019-03-11T16:10:30.180Z,3.40
2019-03-11T16:12:59.431Z,2.70
2019-03-11T16:15:28.669Z,2.77
2019-03-11T16:17:57.924Z,2.70
2019-03-11T16:20:27.453Z,3.00
2019-03-11T16:22:56.709Z,3.03
2019-03-11T16:25:25.972Z,3.37
2019-03-11T16:27:55.209Z,3.07
2019-03-11T16:30:25.905Z,3.17
2019-03-11T16:33:00.437Z,3.27
2019-03-11T16:35:27.688Z,3.87
2019-03-11T16:37:56.928Z,2.93
2019-03-11T16:40:26.177Z,3.67
2019-03-11T16:42:55.684Z,3.20
2019-03-11T16:45:25.016Z,3.50
2019-03-11T16:47:55.328Z,3.30
2019-03-11T16:50:26.244Z,3.53
2019-03-11T16:52:55.485Z,3.43
2019-03-11T16:55:32.520Z,3.60
2019-03-11T16:58:01.807Z,3.00
2019-03-11T17:00:39.718Z,3.30
2019-03-11T17:03:09.313Z,3.70
2019-03-11T17:05:38.571Z,5.73
2019-03-11T17:08:07.892Z,5.07
2019-03-11T17:10:37.152Z,4.30
2019-03-11T17:13:06.479Z,3.70
2019-03-11T17:15:35.737Z,3.80
2019-03-11T17:18:05.055Z,3.60
2019-03-11T17:20:34.236Z,3.77
2019-03-11T17:23:03.478Z,3.77
2019-03-11T17:25:32.732Z,4.10
2019-03-11T17:28:01.982Z,3.73
2019-03-11T17:30:31.299Z,4.10
2019-03-11T17:33:00.557Z,3.60
2019-03-11T17:35:29.807Z,3.60
2019-03-11T17:37:59.207Z,3.83
2019-03-11T17:40:29.676Z,3.57
2019-03-11T17:42:59.345Z,3.87
2019-03-11T17:45:28.606Z,3.50
2019-03-11T17:47:57.924Z,3.70
2019-03-11T17:50:27.185Z,3.70
2019-03-11T17:52:56.507Z,3.50
2019-03-11T17:55:25.911Z,3.43
2019-03-11T17:57:55.163Z,3.73
2019-03-11T18:00:27.255Z,3.60
2019-03-11T18:02:56.585Z,3.60
2019-03-11T18:05:25.897Z,3.57
2019-03-11T18:07:55.188Z,3.83
2019-03-11T18:10:24.451Z,3.90
2019-03-11T18:12:53.777Z,3.13
2019-03-11T18:15:23.028Z,2.83
2019-03-11T18:17:52.290Z,3.07
2019-03-11T18:20:21.607Z,3.30
2019-03-11T18:22:50.987Z,3.17
2019-03-11T18:25:21.088Z,2.80
2019-03-11T18:27:50.352Z,3.37
2019-03-11T18:30:21.528Z,3.27
2019-03-11T18:32:51.018Z,2.93
2019-03-11T18:35:20.274Z,2.87
2019-03-11T18:37:49.817Z,3.00
2019-03-11T18:40:19.870Z,2.90
2019-03-11T18:42:49.288Z,2.90
2019-03-11T18:45:18.652Z,3.13
2019-03-11T18:47:48.036Z,2.90
2019-03-11T18:50:20.598Z,3.20
2019-03-11T18:52:49.835Z,3.07
2019-03-11T18:55:19.070Z,2.83
2019-03-11T18:57:48.359Z,2.87
2019-03-11T19:00:19.852Z,2.40
2019-03-11T19:02:49.284Z,2.30
2019-03-11T19:05:24.946Z,2.40
2019-03-11T19:07:55.428Z,2.47
2019-03-11T19:10:24.932Z,2.50
2019-03-11T19:12:54.259Z,2.33
2019-03-11T19:15:24.959Z,2.27
2019-03-11T19:17:54.215Z,2.37
2019-03-11T19:20:24.481Z,2.17
2019-03-11T19:22:53.769Z,2.20
2019-03-11T19:25:23.036Z,2.50
2019-03-11T19:27:52.227Z,1.80
2019-03-11T19:30:23.800Z,2.00
2019-03-11T19:32:53.129Z,2.43
2019-03-11T19:35:22.475Z,1.90
2019-03-11T19:37:51.910Z,1.70
2019-03-11T19:40:26.181Z,2.10
2019-03-11T19:42:55.496Z,2.30
2019-03-11T19:45:25.056Z,2.13
2019-03-11T19:47:54.363Z,2.57
2019-03-11T19:50:24.296Z,2.17
2019-03-11T19:52:58.988Z,2.03
2019-03-11T19:55:24.420Z,2.20
2019-03-11T19:57:53.697Z,2.30
2019-03-11T20:00:24.305Z,2.00
2019-03-11T20:02:53.582Z,2.27
2019-03-11T20:05:27.802Z,3.20
2019-03-11T20:07:57.242Z,3.37
2019-03-11T20:10:26.645Z,2.50
2019-03-11T20:12:56.040Z,2.67
2019-03-11T20:15:25.347Z,2.53
2019-03-11T20:17:54.658Z,2.50
2019-03-11T20:20:24.054Z,2.60
2019-03-11T20:22:53.408Z,2.60
2019-03-11T20:25:31.166Z,2.67
2019-03-11T20:28:00.464Z,2.67
2019-03-11T20:30:29.888Z,2.60
2019-03-11T20:32:59.424Z,2.40
2019-03-11T20:35:28.774Z,2.30
2019-03-11T20:37:59.080Z,2.23
2019-03-11T20:40:28.328Z,2.40
2019-03-11T20:42:57.589Z,2.20
2019-03-11T20:45:26.849Z,2.07
2019-03-11T20:47:56.090Z,2.80
2019-03-11T20:50:26.511Z,1.77
2019-03-11T20:52:57.105Z,2.30
2019-03-11T20:55:26.410Z,2.40
2019-03-11T20:57:55.792Z,2.10
2019-03-11T21:00:29.057Z,2.23
2019-03-11T21:03:00.058Z,2.27
2019-03-11T21:05:37.356Z,2.10
2019-03-11T21:08:06.602Z,2.20
2019-03-11T21:10:35.868Z,2.30
2019-03-11T21:13:05.178Z,1.90
2019-03-11T21:15:34.489Z,1.83
2019-03-11T21:18:04.016Z,2.20
2019-03-11T21:20:33.205Z,1.70
2019-03-11T21:23:02.439Z,1.67
2019-03-11T21:25:31.700Z,1.77
2019-03-11T21:28:00.987Z,1.70
2019-03-11T21:30:31.264Z,1.60
2019-03-11T21:33:00.542Z,1.67
2019-03-11T21:35:29.755Z,1.70
2019-03-11T21:37:58.948Z,1.60
2019-03-11T21:40:28.257Z,1.90
2019-03-11T21:42:57.505Z,1.63
2019-03-11T21:45:34.145Z,1.43
2019-03-11T21:47:57.572Z,1.50
2019-03-11T21:50:28.217Z,1.57
2019-03-11T21:52:57.424Z,1.20
2019-03-11T21:55:26.692Z,1.37
2019-03-11T21:57:56.288Z,1.80
2019-03-11T22:00:34.570Z,1.60
2019-03-11T22:02:56.597Z,1.40
2019-03-11T22:05:25.853Z,1.60
2019-03-11T22:07:56.379Z,1.47
2019-03-11T22:10:25.631Z,1.30
2019-03-11T22:12:54.884Z,1.27
2019-03-11T22:15:25.460Z,1.37
2019-03-11T22:17:54.716Z,1.43
2019-03-11T22:20:23.955Z,1.50
2019-03-11T22:22:53.139Z,1.20
2019-03-11T22:25:22.375Z,1.20
2019-03-11T22:27:51.570Z,1.30
2019-03-11T22:30:21.547Z,1.00
2019-03-11T22:32:50.803Z,1.20
2019-03-11T22:35:20.059Z,1.30
2019-03-11T22:37:49.299Z,1.00
2019-03-11T22:40:21.171Z,1.20
2019-03-11T22:42:50.415Z,1.13
2019-03-11T22:45:22.097Z,1.10
2019-03-11T22:47:51.548Z,0.93
2019-03-11T22:50:20.947Z,0.90
2019-03-11T22:52:50.225Z,1.13
2019-03-11T22:55:19.839Z,1.00
2019-03-11T22:57:49.248Z,1.17
2019-03-11T23:00:41.494Z,1.00
2019-03-11T23:03:12.347Z,1.10
2019-03-11T23:05:57.034Z,1.17
2019-03-11T23:08:12.476Z,0.87
2019-03-11T23:10:41.719Z,1.20
2019-03-11T23:13:10.967Z,0.97
2019-03-11T23:15:40.366Z,0.80
2019-03-11T23:18:09.620Z,0.70
2019-03-11T23:20:38.873Z,1.13
2019-03-11T23:23:08.124Z,0.93
2019-03-11T23:25:37.384Z,0.83
2019-03-11T23:28:06.624Z,0.70
2019-03-11T23:30:35.976Z,0.90
2019-03-11T23:33:05.215Z,0.97
2019-03-11T23:35:34.477Z,1.13
2019-03-11T23:38:03.767Z,0.90
2019-03-11T23:40:32.971Z,0.90
2019-03-11T23:43:02.157Z,0.70
2019-03-11T23:45:31.391Z,0.70
2019-03-11T23:48:00.652Z,0.77
2019-03-11T23:50:29.888Z,1.10
2019-03-11T23:52:59.137Z,0.73
2019-03-11T23:55:28.489Z,0.87
2019-03-11T23:57:57.750Z,1.10
